sensor_id;sensor_type;location;lat;lon;timestamp;P1;durP1;ratioP1;P2;durP2;ratioP2
11877;SDS011;5998;42.676;23.268;2023-04-24T00:00:48;10.53;;;8.30;;
11877;SDS011;5998;42.676;23.268;2023-04-24T00:03:16;10.20;;;8.07;;
11877;SDS011;5998;42.676;23.268;2023-04-24T00:05:46;10.90;;;8.10;;
11877;SDS011;5998;42.676;23.268;2023-04-24T00:08:12;10.17;;;8.53;;
11877;SDS011;5998;42.676;23.268;2023-04-24T00:10:39;11.47;;;8.03;;
11877;SDS011;5998;42.676;23.268;2023-04-24T00:13:07;12.67;;;8.53;;
11877;SDS011;5998;42.676;23.268;2023-04-24T00:15:33;9.37;;;8.00;;
11877;SDS011;5998;42.676;23.268;2023-04-24T00:18:00;10.43;;;8.23;;
11877;SDS011;5998;42.676;23.268;2023-04-24T00:20:27;10.10;;;8.63;;
11877;SDS011;5998;42.676;23.268;2023-04-24T00:22:54;12.60;;;9.30;;
11877;SDS011;5998;42.676;23.268;2023-04-24T00:25:20;14.67;;;9.97;;
11877;SDS011;5998;42.676;23.268;2023-04-24T00:27:47;13.67;;;11.27;;
11877;SDS011;5998;42.676;23.268;2023-04-24T00:30:15;13.03;;;10.43;;
11877;SDS011;5998;42.676;23.268;2023-04-24T00:32:41;17.90;;;11.50;;
11877;SDS011;5998;42.676;23.268;2023-04-24T00:35:08;15.00;;;11.13;;
11877;SDS011;5998;42.676;23.268;2023-04-24T00:37:35;11.23;;;9.47;;
11877;SDS011;5998;42.676;23.268;2023-04-24T00:40:02;10.80;;;8.43;;
11877;SDS011;5998;42.676;23.268;2023-04-24T00:42:28;11.57;;;8.57;;
11877;SDS011;5998;42.676;23.268;2023-04-24T00:44:55;13.57;;;9.93;;
11877;SDS011;5998;42.676;23.268;2023-04-24T00:47:24;11.07;;;9.63;;
11877;SDS011;5998;42.676;23.268;2023-04-24T00:49:51;11.07;;;9.60;;
11877;SDS011;5998;42.676;23.268;2023-04-24T00:52:17;14.57;;;10.83;;
11877;SDS011;5998;42.676;23.268;2023-04-24T00:54:45;14.43;;;10.57;;
11877;SDS011;5998;42.676;23.268;2023-04-24T00:57:12;12.10;;;9.93;;
11877;SDS011;5998;42.676;23.268;2023-04-24T00:59:39;13.50;;;10.57;;
11877;SDS011;5998;42.676;23.268;2023-04-24T01:02:06;10.87;;;9.70;;
11877;SDS011;5998;42.676;23.268;2023-04-24T01:04:34;11.20;;;9.33;;
11877;SDS011;5998;42.676;23.268;2023-04-24T01:07:00;15.93;;;9.87;;
11877;SDS011;5998;42.676;23.268;2023-04-24T01:09:27;11.87;;;9.77;;
11877;SDS011;5998;42.676;23.268;2023-04-24T01:11:53;12.57;;;10.73;;
11877;SDS011;5998;42.676;23.268;2023-04-24T01:14:20;15.43;;;10.10;;
11877;SDS011;5998;42.676;23.268;2023-04-24T01:16:46;12.20;;;10.60;;
11877;SDS011;5998;42.676;23.268;2023-04-24T01:19:13;11.97;;;10.57;;
11877;SDS011;5998;42.676;23.268;2023-04-24T01:21:42;12.60;;;10.63;;
11877;SDS011;5998;42.676;23.268;2023-04-24T01:24:10;12.40;;;10.97;;
11877;SDS011;5998;42.676;23.268;2023-04-24T01:26:37;13.33;;;10.97;;
11877;SDS011;5998;42.676;23.268;2023-04-24T01:29:04;14.20;;;10.77;;
11877;SDS011;5998;42.676;23.268;2023-04-24T01:31:30;13.10;;;10.40;;
11877;SDS011;5998;42.676;23.268;2023-04-24T01:33:58;13.10;;;9.83;;
11877;SDS011;5998;42.676;23.268;2023-04-24T01:36:24;13.70;;;10.03;;
11877;SDS011;5998;42.676;23.268;2023-04-24T01:38:52;10.90;;;9.73;;
11877;SDS011;5998;42.676;23.268;2023-04-24T01:41:20;9.07;;;8.23;;
11877;SDS011;5998;42.676;23.268;2023-04-24T01:43:47;11.40;;;8.57;;
11877;SDS011;5998;42.676;23.268;2023-04-24T01:46:14;11.37;;;8.60;;
11877;SDS011;5998;42.676;23.268;2023-04-24T01:48:41;13.70;;;9.00;;
11877;SDS011;5998;42.676;23.268;2023-04-24T01:51:07;10.13;;;7.83;;
11877;SDS011;5998;42.676;23.268;2023-04-24T01:53:34;9.20;;;7.07;;
11877;SDS011;5998;42.676;23.268;2023-04-24T01:56:00;12.43;;;8.27;;
11877;SDS011;5998;42.676;23.268;2023-04-24T01:58:29;8.77;;;6.00;;
11877;SDS011;5998;42.676;23.268;2023-04-24T02:00:55;8.73;;;6.33;;
11877;SDS011;5998;42.676;23.268;2023-04-24T02:03:22;7.23;;;5.80;;
11877;SDS011;5998;42.676;23.268;2023-04-24T02:05:49;7.20;;;6.50;;
11877;SDS011;5998;42.676;23.268;2023-04-24T02:08:15;7.87;;;7.07;;
11877;SDS011;5998;42.676;23.268;2023-04-24T02:10:42;8.03;;;6.00;;
11877;SDS011;5998;42.676;23.268;2023-04-24T02:13:09;8.03;;;6.33;;
11877;SDS011;5998;42.676;23.268;2023-04-24T02:15:37;8.87;;;6.40;;
11877;SDS011;5998;42.676;23.268;2023-04-24T02:18:03;7.23;;;6.50;;
11877;SDS011;5998;42.676;23.268;2023-04-24T02:20:30;7.60;;;6.77;;
11877;SDS011;5998;42.676;23.268;2023-04-24T02:22:58;7.87;;;6.60;;
11877;SDS011;5998;42.676;23.268;2023-04-24T02:25:25;12.63;;;7.00;;
11877;SDS011;5998;42.676;23.268;2023-04-24T02:27:52;7.90;;;7.00;;
11877;SDS011;5998;42.676;23.268;2023-04-24T02:30:18;11.17;;;7.70;;
11877;SDS011;5998;42.676;23.268;2023-04-24T02:32:46;12.50;;;8.03;;
11877;SDS011;5998;42.676;23.268;2023-04-24T02:35:12;7.90;;;7.10;;
11877;SDS011;5998;42.676;23.268;2023-04-24T02:37:39;9.77;;;7.20;;
11877;SDS011;5998;42.676;23.268;2023-04-24T02:40:06;11.70;;;8.13;;
11877;SDS011;5998;42.676;23.268;2023-04-24T02:42:33;10.03;;;8.00;;
11877;SDS011;5998;42.676;23.268;2023-04-24T02:44:59;8.90;;;7.67;;
11877;SDS011;5998;42.676;23.268;2023-04-24T02:47:26;15.63;;;8.70;;
11877;SDS011;5998;42.676;23.268;2023-04-24T02:49:53;16.83;;;8.43;;
11877;SDS011;5998;42.676;23.268;2023-04-24T02:52:20;12.93;;;8.17;;
11877;SDS011;5998;42.676;23.268;2023-04-24T02:54:46;13.37;;;8.27;;
11877;SDS011;5998;42.676;23.268;2023-04-24T02:57:13;11.77;;;8.33;;
11877;SDS011;5998;42.676;23.268;2023-04-24T02:59:40;12.10;;;9.00;;
11877;SDS011;5998;42.676;23.268;2023-04-24T03:02:06;12.37;;;8.93;;
11877;SDS011;5998;42.676;23.268;2023-04-24T03:04:33;17.47;;;9.33;;
11877;SDS011;5998;42.676;23.268;2023-04-24T03:07:00;12.97;;;8.67;;
11877;SDS011;5998;42.676;23.268;2023-04-24T03:09:27;11.97;;;9.27;;
11877;SDS011;5998;42.676;23.268;2023-04-24T03:11:53;15.37;;;10.00;;
11877;SDS011;5998;42.676;23.268;2023-04-24T03:14:20;13.83;;;9.23;;
11877;SDS011;5998;42.676;23.268;2023-04-24T03:16:47;15.57;;;9.80;;
11877;SDS011;5998;42.676;23.268;2023-04-24T03:19:13;14.70;;;9.23;;
11877;SDS011;5998;42.676;23.268;2023-04-24T03:21:39;17.37;;;9.50;;
11877;SDS011;5998;42.676;23.268;2023-04-24T03:24:08;11.87;;;9.13;;
11877;SDS011;5998;42.676;23.268;2023-04-24T03:26:34;12.63;;;9.60;;
11877;SDS011;5998;42.676;23.268;2023-04-24T03:29:01;12.30;;;9.40;;
11877;SDS011;5998;42.676;23.268;2023-04-24T03:31:27;11.33;;;9.63;;
11877;SDS011;5998;42.676;23.268;2023-04-24T03:33:54;15.37;;;9.57;;
11877;SDS011;5998;42.676;23.268;2023-04-24T03:36:20;11.70;;;8.90;;
11877;SDS011;5998;42.676;23.268;2023-04-24T03:38:47;10.83;;;8.77;;
11877;SDS011;5998;42.676;23.268;2023-04-24T03:41:14;13.50;;;8.97;;
11877;SDS011;5998;42.676;23.268;2023-04-24T03:43:41;14.43;;;8.93;;
11877;SDS011;5998;42.676;23.268;2023-04-24T03:46:07;14.17;;;9.20;;
11877;SDS011;5998;42.676;23.268;2023-04-24T03:48:34;13.77;;;8.90;;
11877;SDS011;5998;42.676;23.268;2023-04-24T03:51:01;24.33;;;11.63;;
11877;SDS011;5998;42.676;23.268;2023-04-24T03:53:28;14.23;;;9.47;;
11877;SDS011;5998;42.676;23.268;2023-04-24T03:55:54;21.10;;;10.80;;
11877;SDS011;5998;42.676;23.268;2023-04-24T03:58:22;16.80;;;8.90;;
11877;SDS011;5998;42.676;23.268;2023-04-24T04:00:49;17.13;;;9.83;;
11877;SDS011;5998;42.676;23.268;2023-04-24T04:03:15;14.23;;;9.73;;
11877;SDS011;5998;42.676;23.268;2023-04-24T04:05:41;16.80;;;9.60;;
11877;SDS011;5998;42.676;23.268;2023-04-24T04:08:08;21.03;;;17.73;;
11877;SDS011;5998;42.676;23.268;2023-04-24T04:10:34;21.83;;;15.67;;
11877;SDS011;5998;42.676;23.268;2023-04-24T04:13:01;21.47;;;12.83;;
11877;SDS011;5998;42.676;23.268;2023-04-24T04:15:28;14.53;;;9.50;;
11877;SDS011;5998;42.676;23.268;2023-04-24T04:17:55;10.70;;;9.60;;
11877;SDS011;5998;42.676;23.268;2023-04-24T04:20:21;21.53;;;18.67;;
11877;SDS011;5998;42.676;23.268;2023-04-24T04:22:48;9.93;;;8.93;;
11877;SDS011;5998;42.676;23.268;2023-04-24T04:25:14;12.40;;;8.50;;
11877;SDS011;5998;42.676;23.268;2023-04-24T04:27:43;9.50;;;8.10;;
11877;SDS011;5998;42.676;23.268;2023-04-24T04:30:11;9.90;;;8.90;;
11877;SDS011;5998;42.676;23.268;2023-04-24T04:32:38;10.90;;;8.50;;
11877;SDS011;5998;42.676;23.268;2023-04-24T04:35:05;12.27;;;8.70;;
11877;SDS011;5998;42.676;23.268;2023-04-24T04:37:32;10.73;;;8.47;;
11877;SDS011;5998;42.676;23.268;2023-04-24T04:39:59;19.80;;;8.93;;
11877;SDS011;5998;42.676;23.268;2023-04-24T04:42:26;13.20;;;9.40;;
11877;SDS011;5998;42.676;23.268;2023-04-24T04:44:53;11.33;;;8.30;;
11877;SDS011;5998;42.676;23.268;2023-04-24T04:47:21;12.27;;;8.63;;
11877;SDS011;5998;42.676;23.268;2023-04-24T04:49:49;11.37;;;7.70;;
11877;SDS011;5998;42.676;23.268;2023-04-24T04:52:17;9.77;;;8.70;;
11877;SDS011;5998;42.676;23.268;2023-04-24T04:54:43;15.03;;;8.60;;
11877;SDS011;5998;42.676;23.268;2023-04-24T04:57:10;14.03;;;7.77;;
11877;SDS011;5998;42.676;23.268;2023-04-24T04:59:37;11.73;;;8.13;;
11877;SDS011;5998;42.676;23.268;2023-04-24T05:02:03;15.83;;;8.10;;
11877;SDS011;5998;42.676;23.268;2023-04-24T05:04:30;10.83;;;7.67;;
11877;SDS011;5998;42.676;23.268;2023-04-24T05:06:57;11.63;;;7.33;;
11877;SDS011;5998;42.676;23.268;2023-04-24T05:09:24;10.97;;;7.43;;
11877;SDS011;5998;42.676;23.268;2023-04-24T05:11:52;8.77;;;7.47;;
11877;SDS011;5998;42.676;23.268;2023-04-24T05:14:18;14.47;;;7.13;;
11877;SDS011;5998;42.676;23.268;2023-04-24T05:16:45;10.23;;;6.90;;
11877;SDS011;5998;42.676;23.268;2023-04-24T05:19:12;8.97;;;6.80;;
11877;SDS011;5998;42.676;23.268;2023-04-24T05:21:39;9.33;;;6.00;;
11877;SDS011;5998;42.676;23.268;2023-04-24T05:24:07;9.40;;;5.70;;
11877;SDS011;5998;42.676;23.268;2023-04-24T05:26:33;9.07;;;6.00;;
11877;SDS011;5998;42.676;23.268;2023-04-24T05:29:00;9.30;;;5.97;;
11877;SDS011;5998;42.676;23.268;2023-04-24T05:31:27;8.50;;;5.57;;
11877;SDS011;5998;42.676;23.268;2023-04-24T05:33:53;9.70;;;5.20;;
11877;SDS011;5998;42.676;23.268;2023-04-24T05:36:20;8.47;;;4.87;;
11877;SDS011;5998;42.676;23.268;2023-04-24T05:38:46;6.93;;;5.10;;
11877;SDS011;5998;42.676;23.268;2023-04-24T05:41:14;8.03;;;5.60;;
11877;SDS011;5998;42.676;23.268;2023-04-24T05:43:41;5.47;;;4.97;;
11877;SDS011;5998;42.676;23.268;2023-04-24T05:46:07;8.60;;;5.60;;
11877;SDS011;5998;42.676;23.268;2023-04-24T05:48:34;12.10;;;5.40;;
11877;SDS011;5998;42.676;23.268;2023-04-24T05:51:00;6.67;;;5.27;;
11877;SDS011;5998;42.676;23.268;2023-04-24T05:53:27;9.13;;;6.10;;
11877;SDS011;5998;42.676;23.268;2023-04-24T05:55:53;10.33;;;6.20;;
11877;SDS011;5998;42.676;23.268;2023-04-24T05:58:21;12.80;;;6.13;;
11877;SDS011;5998;42.676;23.268;2023-04-24T06:00:47;10.43;;;5.83;;
11877;SDS011;5998;42.676;23.268;2023-04-24T06:03:14;8.80;;;5.77;;
11877;SDS011;5998;42.676;23.268;2023-04-24T06:05:41;7.97;;;6.13;;
11877;SDS011;5998;42.676;23.268;2023-04-24T06:08:07;9.90;;;6.30;;
11877;SDS011;5998;42.676;23.268;2023-04-24T06:10:34;11.60;;;7.43;;
11877;SDS011;5998;42.676;23.268;2023-04-24T06:13:00;6.97;;;6.00;;
11877;SDS011;5998;42.676;23.268;2023-04-24T06:15:29;7.47;;;6.50;;
11877;SDS011;5998;42.676;23.268;2023-04-24T06:17:56;13.67;;;6.93;;
11877;SDS011;5998;42.676;23.268;2023-04-24T06:20:23;11.20;;;7.40;;
11877;SDS011;5998;42.676;23.268;2023-04-24T06:22:49;12.70;;;7.60;;
11877;SDS011;5998;42.676;23.268;2023-04-24T06:25:16;13.00;;;7.10;;
11877;SDS011;5998;42.676;23.268;2023-04-24T06:27:42;7.93;;;6.67;;
11877;SDS011;5998;42.676;23.268;2023-04-24T06:30:09;11.17;;;7.57;;
11877;SDS011;5998;42.676;23.268;2023-04-24T06:32:37;9.97;;;6.70;;
11877;SDS011;5998;42.676;23.268;2023-04-24T06:35:04;9.53;;;6.77;;
11877;SDS011;5998;42.676;23.268;2023-04-24T06:37:32;10.23;;;6.83;;
11877;SDS011;5998;42.676;23.268;2023-04-24T06:39:58;12.80;;;6.97;;
11877;SDS011;5998;42.676;23.268;2023-04-24T06:42:25;7.83;;;6.60;;
11877;SDS011;5998;42.676;23.268;2023-04-24T06:44:51;8.50;;;7.30;;
11877;SDS011;5998;42.676;23.268;2023-04-24T06:47:18;13.50;;;6.10;;
11877;SDS011;5998;42.676;23.268;2023-04-24T06:49:46;11.70;;;6.90;;
11877;SDS011;5998;42.676;23.268;2023-04-24T06:52:12;9.60;;;7.03;;
11877;SDS011;5998;42.676;23.268;2023-04-24T06:54:38;14.03;;;7.37;;
11877;SDS011;5998;42.676;23.268;2023-04-24T06:57:05;15.47;;;6.83;;
11877;SDS011;5998;42.676;23.268;2023-04-24T06:59:31;8.90;;;6.63;;
11877;SDS011;5998;42.676;23.268;2023-04-24T07:01:58;11.80;;;7.20;;
11877;SDS011;5998;42.676;23.268;2023-04-24T07:04:24;9.87;;;6.53;;
11877;SDS011;5998;42.676;23.268;2023-04-24T07:06:52;9.17;;;7.00;;
11877;SDS011;5998;42.676;23.268;2023-04-24T07:09:20;10.47;;;6.60;;
11877;SDS011;5998;42.676;23.268;2023-04-24T07:11:49;12.10;;;6.60;;
11877;SDS011;5998;42.676;23.268;2023-04-24T07:14:15;12.93;;;7.73;;
11877;SDS011;5998;42.676;23.268;2023-04-24T07:16:42;12.30;;;7.13;;
11877;SDS011;5998;42.676;23.268;2023-04-24T07:19:08;11.00;;;6.73;;
11877;SDS011;5998;42.676;23.268;2023-04-24T07:21:35;8.93;;;6.83;;
11877;SDS011;5998;42.676;23.268;2023-04-24T07:24:03;12.37;;;6.90;;
11877;SDS011;5998;42.676;23.268;2023-04-24T07:26:29;8.57;;;5.87;;
11877;SDS011;5998;42.676;23.268;2023-04-24T07:28:56;8.33;;;7.17;;
11877;SDS011;5998;42.676;23.268;2023-04-24T07:31:22;8.57;;;7.03;;
11877;SDS011;5998;42.676;23.268;2023-04-24T07:33:49;5.37;;;4.87;;
11877;SDS011;5998;42.676;23.268;2023-04-24T07:36:15;10.67;;;6.40;;
11877;SDS011;5998;42.676;23.268;2023-04-24T07:38:43;7.97;;;4.83;;
11877;SDS011;5998;42.676;23.268;2023-04-24T07:41:11;8.97;;;5.93;;
11877;SDS011;5998;42.676;23.268;2023-04-24T07:43:38;12.13;;;7.07;;
11877;SDS011;5998;42.676;23.268;2023-04-24T07:46:04;8.03;;;5.27;;
11877;SDS011;5998;42.676;23.268;2023-04-24T07:48:31;12.77;;;6.20;;
11877;SDS011;5998;42.676;23.268;2023-04-24T07:50:57;7.67;;;6.60;;
11877;SDS011;5998;42.676;23.268;2023-04-24T07:53:23;7.07;;;5.70;;
11877;SDS011;5998;42.676;23.268;2023-04-24T07:55:50;9.03;;;6.20;;
11877;SDS011;5998;42.676;23.268;2023-04-24T07:58:18;14.20;;;7.13;;
11877;SDS011;5998;42.676;23.268;2023-04-24T08:00:44;11.77;;;6.93;;
11877;SDS011;5998;42.676;23.268;2023-04-24T08:03:11;8.67;;;6.30;;
11877;SDS011;5998;42.676;23.268;2023-04-24T08:05:37;11.33;;;6.67;;
11877;SDS011;5998;42.676;23.268;2023-04-24T08:08:04;10.80;;;6.70;;
11877;SDS011;5998;42.676;23.268;2023-04-24T08:10:30;19.17;;;6.97;;
11877;SDS011;5998;42.676;23.268;2023-04-24T08:12:57;10.90;;;6.70;;
11877;SDS011;5998;42.676;23.268;2023-04-24T08:15:24;14.70;;;7.57;;
11877;SDS011;5998;42.676;23.268;2023-04-24T08:17:51;9.67;;;7.13;;
11877;SDS011;5998;42.676;23.268;2023-04-24T08:20:17;11.20;;;7.97;;
11877;SDS011;5998;42.676;23.268;2023-04-24T08:22:44;11.93;;;6.87;;
11877;SDS011;5998;42.676;23.268;2023-04-24T08:25:12;11.90;;;7.47;;
11877;SDS011;5998;42.676;23.268;2023-04-24T08:27:38;8.77;;;6.80;;
11877;SDS011;5998;42.676;23.268;2023-04-24T08:30:05;9.07;;;6.87;;
11877;SDS011;5998;42.676;23.268;2023-04-24T08:32:33;9.73;;;7.20;;
11877;SDS011;5998;42.676;23.268;2023-04-24T08:35:00;11.90;;;6.97;;
11877;SDS011;5998;42.676;23.268;2023-04-24T08:37:26;9.90;;;6.87;;
11877;SDS011;5998;42.676;23.268;2023-04-24T08:39:53;6.87;;;6.13;;
11877;SDS011;5998;42.676;23.268;2023-04-24T08:42:20;17.17;;;6.70;;
11877;SDS011;5998;42.676;23.268;2023-04-24T08:44:47;10.67;;;6.50;;
11877;SDS011;5998;42.676;23.268;2023-04-24T08:47:14;12.27;;;7.37;;
11877;SDS011;5998;42.676;23.268;2023-04-24T08:49:42;7.77;;;6.83;;
11877;SDS011;5998;42.676;23.268;2023-04-24T08:52:08;10.57;;;7.13;;
11877;SDS011;5998;42.676;23.268;2023-04-24T08:54:38;10.77;;;5.67;;
11877;SDS011;5998;42.676;23.268;2023-04-24T08:57:05;8.23;;;6.43;;
11877;SDS011;5998;42.676;23.268;2023-04-24T08:59:34;7.40;;;5.73;;
11877;SDS011;5998;42.676;23.268;2023-04-24T09:02:01;7.27;;;5.10;;
11877;SDS011;5998;42.676;23.268;2023-04-24T09:04:29;9.80;;;6.40;;
11877;SDS011;5998;42.676;23.268;2023-04-24T09:06:57;11.83;;;6.70;;
11877;SDS011;5998;42.676;23.268;2023-04-24T09:09:24;9.20;;;6.43;;
11877;SDS011;5998;42.676;23.268;2023-04-24T09:11:51;7.07;;;5.90;;
11877;SDS011;5998;42.676;23.268;2023-04-24T09:14:19;7.20;;;6.27;;
11877;SDS011;5998;42.676;23.268;2023-04-24T09:16:48;9.33;;;5.97;;
11877;SDS011;5998;42.676;23.268;2023-04-24T09:19:14;8.87;;;6.10;;
11877;SDS011;5998;42.676;23.268;2023-04-24T09:21:41;6.20;;;5.63;;
11877;SDS011;5998;42.676;23.268;2023-04-24T09:24:16;6.70;;;5.90;;
11877;SDS011;5998;42.676;23.268;2023-04-24T09:26:43;6.70;;;5.47;;
11877;SDS011;5998;42.676;23.268;2023-04-24T09:29:13;5.37;;;4.80;;
11877;SDS011;5998;42.676;23.268;2023-04-24T09:31:40;6.40;;;5.40;;
11877;SDS011;5998;42.676;23.268;2023-04-24T09:34:07;9.33;;;5.73;;
11877;SDS011;5998;42.676;23.268;2023-04-24T09:36:33;12.33;;;5.67;;
11877;SDS011;5998;42.676;23.268;2023-04-24T09:39:02;9.70;;;5.60;;
11877;SDS011;5998;42.676;23.268;2023-04-24T09:41:31;10.23;;;5.70;;
11877;SDS011;5998;42.676;23.268;2023-04-24T09:44:01;7.43;;;5.50;;
11877;SDS011;5998;42.676;23.268;2023-04-24T09:46:36;6.37;;;5.43;;
11877;SDS011;5998;42.676;23.268;2023-04-24T09:49:07;11.53;;;5.33;;
11877;SDS011;5998;42.676;23.268;2023-04-24T09:51:34;9.77;;;5.20;;
11877;SDS011;5998;42.676;23.268;2023-04-24T09:54:02;5.53;;;4.90;;
11877;SDS011;5998;42.676;23.268;2023-04-24T09:56:33;6.73;;;4.40;;
11877;SDS011;5998;42.676;23.268;2023-04-24T09:59:06;5.50;;;4.53;;
11877;SDS011;5998;42.676;23.268;2023-04-24T10:01:32;5.87;;;4.43;;
11877;SDS011;5998;42.676;23.268;2023-04-24T10:03:59;6.37;;;5.20;;
11877;SDS011;5998;42.676;23.268;2023-04-24T10:06:29;9.73;;;5.43;;
11877;SDS011;5998;42.676;23.268;2023-04-24T10:08:56;5.87;;;5.03;;
11877;SDS011;5998;42.676;23.268;2023-04-24T10:11:23;6.93;;;4.70;;
11877;SDS011;5998;42.676;23.268;2023-04-24T10:13:51;6.53;;;5.00;;
11877;SDS011;5998;42.676;23.268;2023-04-24T10:16:18;8.87;;;4.83;;
11877;SDS011;5998;42.676;23.268;2023-04-24T10:18:45;7.80;;;4.90;;
11877;SDS011;5998;42.676;23.268;2023-04-24T10:21:12;7.47;;;4.63;;
11877;SDS011;5998;42.676;23.268;2023-04-24T10:23:38;4.83;;;4.23;;
11877;SDS011;5998;42.676;23.268;2023-04-24T10:26:06;5.83;;;4.47;;
11877;SDS011;5998;42.676;23.268;2023-04-24T10:28:32;9.17;;;4.50;;
11877;SDS011;5998;42.676;23.268;2023-04-24T10:31:01;3.93;;;3.20;;
11877;SDS011;5998;42.676;23.268;2023-04-24T10:33:28;5.70;;;3.30;;
11877;SDS011;5998;42.676;23.268;2023-04-24T10:35:54;6.50;;;3.43;;
11877;SDS011;5998;42.676;23.268;2023-04-24T10:38:24;6.00;;;3.60;;
11877;SDS011;5998;42.676;23.268;2023-04-24T10:40:51;3.50;;;3.20;;
11877;SDS011;5998;42.676;23.268;2023-04-24T10:43:23;5.53;;;3.20;;
11877;SDS011;5998;42.676;23.268;2023-04-24T10:48:32;4.80;;;2.80;;
11877;SDS011;5998;42.676;23.268;2023-04-24T10:50:59;3.13;;;2.87;;
11877;SDS011;5998;42.676;23.268;2023-04-24T10:53:27;4.93;;;2.97;;
11877;SDS011;5998;42.676;23.268;2023-04-24T10:55:57;4.43;;;2.80;;
11877;SDS011;5998;42.676;23.268;2023-04-24T10:58:24;4.73;;;2.83;;
11877;SDS011;5998;42.676;23.268;2023-04-24T11:00:57;4.03;;;3.30;;
11877;SDS011;5998;42.676;23.268;2023-04-24T11:03:25;8.53;;;3.20;;
11877;SDS011;5998;42.676;23.268;2023-04-24T11:05:55;7.20;;;3.80;;
11877;SDS011;5998;42.676;23.268;2023-04-24T11:08:22;4.63;;;3.30;;
11877;SDS011;5998;42.676;23.268;2023-04-24T11:10:54;5.60;;;3.20;;
11877;SDS011;5998;42.676;23.268;2023-04-24T11:13:21;3.33;;;3.03;;
11877;SDS011;5998;42.676;23.268;2023-04-24T11:15:54;3.60;;;3.30;;
11877;SDS011;5998;42.676;23.268;2023-04-24T11:18:38;5.83;;;3.90;;
11877;SDS011;5998;42.676;23.268;2023-04-24T11:21:11;6.80;;;4.20;;
11877;SDS011;5998;42.676;23.268;2023-04-24T11:23:37;4.13;;;3.80;;
11877;SDS011;5998;42.676;23.268;2023-04-24T11:26:10;4.93;;;3.90;;
11877;SDS011;5998;42.676;23.268;2023-04-24T11:28:37;5.03;;;4.10;;
11877;SDS011;5998;42.676;23.268;2023-04-24T11:33:55;3.73;;;3.40;;
11877;SDS011;5998;42.676;23.268;2023-04-24T11:36:22;3.47;;;3.27;;
11877;SDS011;5998;42.676;23.268;2023-04-24T11:38:50;4.37;;;3.30;;
11877;SDS011;5998;42.676;23.268;2023-04-24T11:41:16;4.07;;;3.67;;
11877;SDS011;5998;42.676;23.268;2023-04-24T11:43:45;6.40;;;3.87;;
11877;SDS011;5998;42.676;23.268;2023-04-24T11:46:12;5.93;;;3.80;;
11877;SDS011;5998;42.676;23.268;2023-04-24T11:48:38;4.07;;;3.60;;
11877;SDS011;5998;42.676;23.268;2023-04-24T11:51:06;4.87;;;3.93;;
11877;SDS011;5998;42.676;23.268;2023-04-24T11:53:34;5.47;;;3.93;;
11877;SDS011;5998;42.676;23.268;2023-04-24T11:56:02;3.97;;;3.57;;
11877;SDS011;5998;42.676;23.268;2023-04-24T11:58:34;5.83;;;3.77;;
11877;SDS011;5998;42.676;23.268;2023-04-24T12:01:01;4.17;;;3.63;;
11877;SDS011;5998;42.676;23.268;2023-04-24T12:03:27;4.93;;;3.67;;
11877;SDS011;5998;42.676;23.268;2023-04-24T12:06:04;4.57;;;3.87;;
11877;SDS011;5998;42.676;23.268;2023-04-24T12:08:31;4.40;;;3.93;;
11877;SDS011;5998;42.676;23.268;2023-04-24T12:10:58;3.10;;;2.90;;
11877;SDS011;5998;42.676;23.268;2023-04-24T12:13:26;3.87;;;3.53;;
11877;SDS011;5998;42.676;23.268;2023-04-24T12:15:52;4.00;;;3.50;;
11877;SDS011;5998;42.676;23.268;2023-04-24T12:18:19;3.70;;;3.50;;
11877;SDS011;5998;42.676;23.268;2023-04-24T12:20:48;4.10;;;3.60;;
11877;SDS011;5998;42.676;23.268;2023-04-24T12:23:14;4.83;;;3.77;;
11877;SDS011;5998;42.676;23.268;2023-04-24T12:25:41;4.17;;;3.70;;
11877;SDS011;5998;42.676;23.268;2023-04-24T12:28:12;4.97;;;3.70;;
11877;SDS011;5998;42.676;23.268;2023-04-24T12:30:39;4.00;;;3.60;;
11877;SDS011;5998;42.676;23.268;2023-04-24T12:33:06;3.80;;;3.50;;
11877;SDS011;5998;42.676;23.268;2023-04-24T12:35:33;3.73;;;3.50;;
11877;SDS011;5998;42.676;23.268;2023-04-24T12:38:11;4.57;;;3.40;;
11877;SDS011;5998;42.676;23.268;2023-04-24T12:40:39;4.13;;;3.63;;
11877;SDS011;5998;42.676;23.268;2023-04-24T12:43:14;4.00;;;3.47;;
11877;SDS011;5998;42.676;23.268;2023-04-24T12:45:41;4.00;;;3.67;;
11877;SDS011;5998;42.676;23.268;2023-04-24T12:48:07;3.87;;;3.57;;
11877;SDS011;5998;42.676;23.268;2023-04-24T12:50:34;4.23;;;3.70;;
11877;SDS011;5998;42.676;23.268;2023-04-24T12:53:01;3.70;;;3.40;;
11877;SDS011;5998;42.676;23.268;2023-04-24T12:55:27;4.47;;;4.00;;
11877;SDS011;5998;42.676;23.268;2023-04-24T12:57:54;4.70;;;4.03;;
11877;SDS011;5998;42.676;23.268;2023-04-24T13:00:22;8.73;;;4.37;;
11877;SDS011;5998;42.676;23.268;2023-04-24T13:02:49;3.93;;;3.60;;
11877;SDS011;5998;42.676;23.268;2023-04-24T13:05:15;4.20;;;3.80;;
11877;SDS011;5998;42.676;23.268;2023-04-24T13:07:42;4.20;;;3.80;;
11877;SDS011;5998;42.676;23.268;2023-04-24T13:10:09;3.53;;;3.23;;
11877;SDS011;5998;42.676;23.268;2023-04-24T13:12:35;3.60;;;3.30;;
11877;SDS011;5998;42.676;23.268;2023-04-24T13:15:02;3.63;;;3.10;;
11877;SDS011;5998;42.676;23.268;2023-04-24T13:17:30;3.30;;;2.97;;
11877;SDS011;5998;42.676;23.268;2023-04-24T13:19:56;5.97;;;3.43;;
11877;SDS011;5998;42.676;23.268;2023-04-24T13:22:23;3.93;;;3.10;;
11877;SDS011;5998;42.676;23.268;2023-04-24T13:24:50;3.30;;;3.10;;
11877;SDS011;5998;42.676;23.268;2023-04-24T13:27:16;4.50;;;3.20;;
11877;SDS011;5998;42.676;23.268;2023-04-24T13:29:43;5.20;;;3.60;;
11877;SDS011;5998;42.676;23.268;2023-04-24T13:32:10;3.60;;;3.10;;
11877;SDS011;5998;42.676;23.268;2023-04-24T13:34:38;5.50;;;3.50;;
11877;SDS011;5998;42.676;23.268;2023-04-24T13:37:04;6.23;;;3.33;;
11877;SDS011;5998;42.676;23.268;2023-04-24T13:39:31;4.47;;;3.50;;
11877;SDS011;5998;42.676;23.268;2023-04-24T13:41:57;4.03;;;3.13;;
11877;SDS011;5998;42.676;23.268;2023-04-24T13:44:24;3.43;;;3.10;;
11877;SDS011;5998;42.676;23.268;2023-04-24T13:46:52;3.77;;;3.20;;
11877;SDS011;5998;42.676;23.268;2023-04-24T13:49:19;4.20;;;3.60;;
11877;SDS011;5998;42.676;23.268;2023-04-24T13:51:47;3.47;;;3.10;;
11877;SDS011;5998;42.676;23.268;2023-04-24T13:54:14;3.57;;;3.20;;
11877;SDS011;5998;42.676;23.268;2023-04-24T13:56:41;3.40;;;3.10;;
11877;SDS011;5998;42.676;23.268;2023-04-24T13:59:07;3.83;;;3.30;;
11877;SDS011;5998;42.676;23.268;2023-04-24T14:01:34;5.00;;;3.30;;
11877;SDS011;5998;42.676;23.268;2023-04-24T14:04:01;7.60;;;3.87;;
11877;SDS011;5998;42.676;23.268;2023-04-24T14:06:27;4.10;;;3.17;;
11877;SDS011;5998;42.676;23.268;2023-04-24T14:08:55;3.20;;;2.90;;
11877;SDS011;5998;42.676;23.268;2023-04-24T14:11:21;3.00;;;2.80;;
11877;SDS011;5998;42.676;23.268;2023-04-24T14:13:48;3.30;;;3.10;;
11877;SDS011;5998;42.676;23.268;2023-04-24T14:16:15;3.63;;;3.27;;
11877;SDS011;5998;42.676;23.268;2023-04-24T14:18:41;4.30;;;2.70;;
11877;SDS011;5998;42.676;23.268;2023-04-24T14:21:07;3.50;;;2.93;;
11877;SDS011;5998;42.676;23.268;2023-04-24T14:23:34;5.87;;;3.50;;
11877;SDS011;5998;42.676;23.268;2023-04-24T14:26:02;5.70;;;3.27;;
11877;SDS011;5998;42.676;23.268;2023-04-24T14:28:28;3.30;;;3.00;;
11877;SDS011;5998;42.676;23.268;2023-04-24T14:30:55;5.33;;;3.17;;
11877;SDS011;5998;42.676;23.268;2023-04-24T14:33:22;3.00;;;2.80;;
11877;SDS011;5998;42.676;23.268;2023-04-24T14:35:48;3.70;;;2.80;;
11877;SDS011;5998;42.676;23.268;2023-04-24T14:38:14;3.60;;;3.30;;
11877;SDS011;5998;42.676;23.268;2023-04-24T14:40:41;4.67;;;3.20;;
11877;SDS011;5998;42.676;23.268;2023-04-24T14:43:09;7.20;;;3.03;;
11877;SDS011;5998;42.676;23.268;2023-04-24T14:45:36;4.93;;;3.10;;